Time;durP1;ratioP1;P1;durP2;ratioP2;P2;SDS_P1;SDS_P2;PMS_P1;PMS_P2;Temp;Humidity;BMP_temperature;BMP_pressure;BME280_temperature;BME280_humidity;BME280_pressure;Samples;Min_cycle;Max_cycle;Signal;HPM_P1;HPM_P2
2023/09/02 00:01:46;;;;;;;7.27;6.60;;;12.10;99.90;;;;;;5038086;28;20553;-60
2023/09/02 00:04:14;;;;;;;6.73;6.10;;;12.00;99.90;;;;;;5036762;28;20494;-59
2023/09/02 00:06:43;;;;;;;7.27;6.67;;;12.00;99.90;;;;;;5034834;28;20571;-60
2023/09/02 00:09:15;;;;;;;7.73;7.03;;;11.90;99.90;;;;;;5041327;28;20553;-60
2023/09/02 00:11:43;;;;;;;6.73;6.23;;;11.90;99.90;;;;;;5036142;28;20478;-60
2023/09/02 00:14:11;;;;;;;7.53;6.87;;;11.90;99.90;;;;;;5043440;28;20518;-60
2023/09/02 00:16:39;;;;;;;7.27;6.57;;;11.80;99.90;;;;;;5037290;28;20963;-60
2023/09/02 00:19:07;;;;;;;7.30;6.70;;;11.80;99.90;;;;;;5037696;28;20471;-60
2023/09/02 00:21:35;;;;;;;7.93;7.23;;;11.80;99.90;;;;;;5030738;28;20522;-60
2023/09/02 00:24:05;;;;;;;7.47;6.77;;;11.80;99.90;;;;;;5043722;28;20495;-60
2023/09/02 00:26:35;;;;;;;7.37;6.67;;;11.80;99.90;;;;;;5031954;28;20540;-60
2023/09/02 00:29:03;;;;;;;7.60;6.90;;;11.80;99.90;;;;;;5030764;28;20501;-59
2023/09/02 00:31:33;;;;;;;8.00;7.30;;;11.80;99.90;;;;;;5032377;28;20471;-59
2023/09/02 00:34:01;;;;;;;7.73;7.03;;;11.80;99.90;;;;;;5033142;28;20490;-60
2023/09/02 00:36:30;;;;;;;7.50;6.80;;;11.70;99.90;;;;;;5031914;28;21073;-60
2023/09/02 00:38:59;;;;;;;7.40;6.80;;;11.70;99.90;;;;;;5035282;28;20497;-60
2023/09/02 00:41:32;;;;;;;8.00;7.30;;;11.60;99.90;;;;;;5030561;28;20569;-59
2023/09/02 00:44:03;;;;;;;8.00;7.30;;;11.60;99.90;;;;;;5030228;28;20462;-60
2023/09/02 00:46:32;;;;;;;7.70;6.80;;;11.60;99.90;;;;;;5036045;28;20591;-60
2023/09/02 00:49:00;;;;;;;7.97;6.80;;;11.60;99.90;;;;;;5031608;28;20857;-60
2023/09/02 00:51:28;;;;;;;7.33;6.70;;;11.60;99.90;;;;;;5032116;28;20615;-60
2023/09/02 00:53:56;;;;;;;6.77;6.17;;;11.50;99.90;;;;;;5039180;28;20925;-60
2023/09/02 00:56:25;;;;;;;6.93;6.33;;;11.50;99.90;;;;;;5038217;28;20577;-60
2023/09/02 00:58:57;;;;;;;6.93;6.33;;;11.50;99.90;;;;;;5037962;28;20482;-60
2023/09/02 01:01:28;;;;;;;7.67;7.00;;;11.50;99.90;;;;;;5025912;28;20498;-60
2023/09/02 01:03:56;;;;;;;6.80;6.20;;;11.40;99.90;;;;;;5031245;28;20473;-59
2023/09/02 01:06:25;;;;;;;7.37;6.77;;;11.40;99.90;;;;;;5030934;28;20478;-59
2023/09/02 01:08:53;;;;;;;7.30;6.60;;;11.40;99.90;;;;;;5043008;28;20540;-60
2023/09/02 01:11:21;;;;;;;8.50;6.60;;;11.40;99.90;;;;;;5035227;28;20924;-60
2023/09/02 01:13:49;;;;;;;7.40;6.40;;;11.40;99.90;;;;;;5036019;28;20493;-60
2023/09/02 01:16:18;;;;;;;7.33;6.30;;;11.40;99.90;;;;;;5032510;28;20476;-60
2023/09/02 01:18:47;;;;;;;7.20;6.60;;;11.40;99.90;;;;;;5041505;28;20604;-60
2023/09/02 01:21:49;;;;;;;7.13;6.43;;;11.30;99.90;;;;;;5039720;28;20496;-59
2023/09/02 01:24:43;;;;;;;6.90;6.30;;;11.30;99.90;;;;;;5012535;28;20509;-59
2023/09/02 01:27:20;;;;;;;7.20;6.50;;;11.30;99.90;;;;;;5041701;28;20474;-60
2023/09/02 01:29:55;;;;;;;6.53;5.90;;;11.30;99.90;;;;;;5044332;28;20572;-60
2023/09/02 01:32:25;;;;;;;7.70;7.00;;;11.30;99.90;;;;;;5041777;28;20494;-60
2023/09/02 01:34:55;;;;;;;6.83;6.30;;;11.20;99.90;;;;;;5038586;28;20494;-59
2023/09/02 01:37:25;;;;;;;6.70;6.10;;;11.20;99.90;;;;;;5042032;28;20467;-59
2023/09/02 01:39:55;;;;;;;6.63;6.03;;;11.20;99.90;;;;;;5040893;28;20831;-60
2023/09/02 01:42:25;;;;;;;7.10;6.50;;;11.20;99.90;;;;;;5027171;28;20566;-59
2023/09/02 01:44:53;;;;;;;6.97;6.37;;;11.10;99.90;;;;;;5038493;28;20482;-60
2023/09/02 01:47:21;;;;;;;6.77;6.20;;;11.10;99.90;;;;;;5038025;28;20471;-59
2023/09/02 01:49:50;;;;;;;8.40;7.57;;;11.10;99.90;;;;;;5021822;28;20948;-59
2023/09/02 01:52:19;;;;;;;6.63;6.03;;;11.10;99.90;;;;;;5041531;28;20476;-60
2023/09/02 01:54:47;;;;;;;6.80;6.20;;;11.10;99.90;;;;;;5040527;28;20585;-60
2023/09/02 01:57:16;;;;;;;6.70;6.20;;;11.10;99.90;;;;;;5044804;28;21308;-60
2023/09/02 01:59:45;;;;;;;6.70;6.10;;;11.10;99.90;;;;;;5040825;28;20848;-59
2023/09/02 02:02:16;;;;;;;7.07;6.37;;;11.00;99.90;;;;;;5039913;28;20471;-60
2023/09/02 02:04:51;;;;;;;7.13;6.53;;;11.00;99.90;;;;;;5036372;28;21091;-60
2023/09/02 02:07:22;;;;;;;7.43;6.83;;;11.00;99.90;;;;;;5045080;28;20476;-60
2023/09/02 02:09:57;;;;;;;6.90;6.30;;;11.00;99.90;;;;;;5042208;28;22566;-60
2023/09/02 02:12:26;;;;;;;6.53;6.03;;;10.90;99.90;;;;;;5040802;28;20631;-60
2023/09/02 02:14:56;;;;;;;6.73;6.23;;;10.90;99.90;;;;;;5043446;28;20566;-60
2023/09/02 02:17:24;;;;;;;7.00;6.30;;;10.90;99.90;;;;;;5042671;28;20561;-60
2023/09/02 02:19:52;;;;;;;6.43;5.83;;;10.90;99.90;;;;;;5039592;28;21026;-60
2023/09/02 02:22:20;;;;;;;6.77;6.20;;;10.90;99.90;;;;;;5041225;28;20560;-60
2023/09/02 02:24:48;;;;;;;7.10;6.47;;;10.90;99.90;;;;;;5042350;28;20616;-60
2023/09/02 02:27:16;;;;;;;7.30;6.60;;;10.80;99.90;;;;;;5034137;28;20477;-60
2023/09/02 02:29:44;;;;;;;7.43;6.73;;;10.80;99.90;;;;;;5043314;28;20577;-60
2023/09/02 02:32:13;;;;;;;6.93;6.33;;;10.80;99.90;;;;;;5041706;28;20916;-60
2023/09/02 02:34:41;;;;;;;6.33;5.83;;;10.80;99.90;;;;;;5039560;28;20548;-60
2023/09/02 02:37:09;;;;;;;6.97;6.37;;;10.80;99.90;;;;;;5037750;28;20963;-60
2023/09/02 02:39:37;;;;;;;7.93;7.13;;;10.80;99.90;;;;;;5038546;28;20475;-60
2023/09/02 02:42:05;;;;;;;6.97;6.30;;;10.80;99.90;;;;;;5043937;28;20963;-60
2023/09/02 02:44:35;;;;;;;7.33;6.73;;;10.80;99.90;;;;;;5042535;28;20474;-60
2023/09/02 02:47:03;;;;;;;6.80;6.30;;;10.70;99.90;;;;;;5037439;28;20473;-59
2023/09/02 02:49:32;;;;;;;7.30;6.70;;;10.70;99.90;;;;;;5039391;28;21025;-60
2023/09/02 02:52:01;;;;;;;7.07;6.37;;;10.70;99.90;;;;;;5038477;28;21003;-60
2023/09/02 02:54:29;;;;;;;6.57;6.07;;;10.70;99.90;;;;;;5041165;28;20490;-60
2023/09/02 02:56:57;;;;;;;6.63;6.03;;;10.70;99.90;;;;;;5039656;28;20470;-60
2023/09/02 02:59:25;;;;;;;7.23;6.63;;;10.70;99.90;;;;;;5039176;28;20478;-59
2023/09/02 03:01:54;;;;;;;7.20;6.50;;;10.60;99.90;;;;;;5037606;28;20517;-60
2023/09/02 03:04:22;;;;;;;6.90;6.20;;;10.60;99.90;;;;;;5038613;28;21055;-60
2023/09/02 03:06:51;;;;;;;7.33;6.73;;;10.60;99.90;;;;;;5036422;28;20570;-60
2023/09/02 03:09:19;;;;;;;6.67;6.17;;;10.60;99.90;;;;;;5037594;28;20475;-59
2023/09/02 03:11:47;;;;;;;7.67;6.97;;;10.60;99.90;;;;;;5040230;28;20561;-60
2023/09/02 03:14:15;;;;;;;6.60;5.90;;;10.60;99.90;;;;;;5032302;28;20498;-60
2023/09/02 03:16:43;;;;;;;7.70;6.50;;;10.60;99.90;;;;;;5039962;28;20928;-60
2023/09/02 03:19:11;;;;;;;7.30;6.70;;;10.60;99.90;;;;;;5040393;28;20475;-58
2023/09/02 03:21:39;;;;;;;7.00;6.40;;;10.60;99.90;;;;;;5037044;28;20830;-60
2023/09/02 03:24:08;;;;;;;6.30;5.80;;;10.60;99.90;;;;;;5035891;28;20589;-60
2023/09/02 03:26:36;;;;;;;7.13;6.53;;;10.50;99.90;;;;;;5039378;28;20865;-60
2023/09/02 03:29:04;;;;;;;7.20;6.60;;;10.50;99.90;;;;;;5039241;28;20502;-59
2023/09/02 03:31:32;;;;;;;6.57;6.07;;;10.50;99.90;;;;;;5039995;28;20477;-60
2023/09/02 03:34:00;;;;;;;7.00;6.40;;;10.50;99.90;;;;;;5039565;28;20562;-60
2023/09/02 03:36:28;;;;;;;7.10;6.50;;;10.50;99.90;;;;;;5038663;28;20999;-60
2023/09/02 03:38:56;;;;;;;6.37;5.80;;;10.50;99.90;;;;;;5041687;28;20561;-60
2023/09/02 03:41:25;;;;;;;7.43;6.87;;;10.50;99.90;;;;;;5039544;28;20967;-59
2023/09/02 03:43:55;;;;;;;7.20;6.60;;;10.50;99.90;;;;;;5038727;28;20597;-60
2023/09/02 03:46:25;;;;;;;6.63;6.03;;;10.50;99.90;;;;;;5040657;28;21007;-60
2023/09/02 03:48:53;;;;;;;7.60;6.87;;;10.50;99.90;;;;;;5038595;28;20561;-60
2023/09/02 03:51:22;;;;;;;7.00;6.40;;;10.50;99.90;;;;;;5042268;28;20466;-60
2023/09/02 03:53:50;;;;;;;7.03;6.43;;;10.40;99.90;;;;;;5040087;28;20478;-60
2023/09/02 03:56:18;;;;;;;7.10;6.50;;;10.40;99.90;;;;;;5034033;28;21036;-60
2023/09/02 03:58:47;;;;;;;6.53;6.00;;;10.40;99.90;;;;;;5042080;28;20470;-60
2023/09/02 04:01:15;;;;;;;6.17;5.67;;;10.40;99.90;;;;;;5040117;28;20592;-59
2023/09/02 04:03:43;;;;;;;7.00;6.30;;;10.40;99.90;;;;;;5038131;28;20483;-59
2023/09/02 04:06:12;;;;;;;6.27;5.77;;;10.40;99.90;;;;;;5028094;28;20513;-60
2023/09/02 04:08:40;;;;;;;7.50;6.80;;;10.40;99.90;;;;;;5041523;28;20482;-60
2023/09/02 04:11:08;;;;;;;7.03;6.43;;;10.30;99.90;;;;;;5041895;28;20550;-60
2023/09/02 04:13:36;;;;;;;8.67;7.87;;;10.30;99.90;;;;;;5037081;28;20997;-61
2023/09/02 04:16:05;;;;;;;6.90;6.30;;;10.30;99.90;;;;;;5040308;28;20841;-60
2023/09/02 04:18:33;;;;;;;6.60;5.90;;;10.30;99.90;;;;;;5041690;28;20588;-60
2023/09/02 04:21:02;;;;;;;6.53;6.03;;;10.30;99.90;;;;;;5039731;28;20470;-60
2023/09/02 04:23:30;;;;;;;7.00;6.40;;;10.30;99.90;;;;;;5040071;28;20979;-60
2023/09/02 04:25:59;;;;;;;6.90;6.20;;;10.30;99.90;;;;;;5041952;28;20493;-60
2023/09/02 04:28:27;;;;;;;6.70;6.20;;;10.20;99.90;;;;;;5040072;28;20510;-60
2023/09/02 04:30:56;;;;;;;6.40;5.80;;;10.20;99.90;;;;;;5037109;28;21231;-60
2023/09/02 04:33:26;;;;;;;7.40;6.40;;;10.20;99.90;;;;;;5041161;28;20560;-59
2023/09/02 04:35:54;;;;;;;6.53;6.03;;;10.20;99.90;;;;;;5036664;28;20961;-59
2023/09/02 04:38:22;;;;;;;7.20;6.50;;;10.20;99.90;;;;;;5030801;28;20651;-60
2023/09/02 04:40:50;;;;;;;6.50;6.00;;;10.20;99.90;;;;;;5033784;28;20535;-60
2023/09/02 04:43:19;;;;;;;6.13;5.53;;;10.20;99.90;;;;;;5041271;28;20470;-60
2023/09/02 04:45:47;;;;;;;5.90;5.40;;;10.20;99.90;;;;;;5040666;28;20510;-60
2023/09/02 04:48:15;;;;;;;6.50;6.00;;;10.20;99.90;;;;;;5038442;28;20598;-60
2023/09/02 04:50:52;;;;;;;6.30;5.70;;;10.20;99.90;;;;;;5035756;28;20529;-60
2023/09/02 04:53:20;;;;;;;7.30;6.70;;;10.20;99.90;;;;;;5045526;28;21058;-60
2023/09/02 04:55:49;;;;;;;7.03;6.43;;;10.20;99.90;;;;;;5043989;28;20493;-60
2023/09/02 04:58:18;;;;;;;7.40;6.63;;;10.20;99.90;;;;;;5045144;28;21001;-60
2023/09/02 05:00:46;;;;;;;6.70;6.10;;;10.20;99.90;;;;;;5040738;28;20531;-60
2023/09/02 05:03:14;;;;;;;6.63;5.97;;;10.20;99.90;;;;;;5040124;28;20564;-59
2023/09/02 05:05:42;;;;;;;7.70;7.00;;;10.30;99.90;;;;;;5046085;28;20478;-60
2023/09/02 05:08:11;;;;;;;6.63;6.03;;;10.30;99.90;;;;;;5035987;28;20466;-60
2023/09/02 05:10:39;;;;;;;6.80;6.30;;;10.30;99.90;;;;;;5040490;28;20479;-60
2023/09/02 05:13:08;;;;;;;6.63;6.13;;;10.30;99.90;;;;;;5040196;28;20462;-59
2023/09/02 05:15:36;;;;;;;6.83;6.23;;;10.30;99.90;;;;;;5043228;28;20579;-60
2023/09/02 05:18:05;;;;;;;6.47;5.87;;;10.30;99.90;;;;;;5042546;28;20470;-60
2023/09/02 05:20:33;;;;;;;7.00;6.40;;;10.40;99.90;;;;;;5041207;28;20467;-60
2023/09/02 05:23:01;;;;;;;7.53;6.50;;;10.40;99.90;;;;;;5038017;28;20549;-60
2023/09/02 05:25:30;;;;;;;7.97;7.17;;;10.40;99.90;;;;;;5043288;28;20987;-60
2023/09/02 05:27:58;;;;;;;6.90;6.30;;;10.40;99.90;;;;;;5033716;28;20565;-59
2023/09/02 05:30:26;;;;;;;6.80;6.20;;;10.50;99.90;;;;;;5039746;28;20494;-60
2023/09/02 05:32:54;;;;;;;6.73;5.97;;;10.50;99.90;;;;;;5037711;28;20462;-60
2023/09/02 05:35:22;;;;;;;6.30;5.77;;;10.60;99.90;;;;;;5038225;28;20513;-60
2023/09/02 05:37:50;;;;;;;6.97;6.37;;;10.60;99.90;;;;;;5039924;28;20475;-60
2023/09/02 05:40:18;;;;;;;7.03;6.47;;;10.70;99.90;;;;;;5043454;28;20838;-60
2023/09/02 05:42:48;;;;;;;6.43;5.93;;;10.70;99.90;;;;;;5038246;28;20505;-60
2023/09/02 05:45:16;;;;;;;7.13;6.47;;;10.70;99.90;;;;;;5040112;28;20584;-60
2023/09/02 05:47:44;;;;;;;7.20;6.60;;;10.70;99.90;;;;;;5046900;28;20465;-60
2023/09/02 05:50:12;;;;;;;7.70;6.13;;;10.80;99.90;;;;;;5039765;28;20478;-60
2023/09/02 05:52:40;;;;;;;6.70;6.17;;;10.80;99.90;;;;;;5040338;28;20470;-60
2023/09/02 05:55:08;;;;;;;7.67;6.70;;;10.90;99.90;;;;;;5041133;28;20497;-60
2023/09/02 05:57:36;;;;;;;7.13;6.50;;;10.90;99.90;;;;;;5043258;28;20520;-60
2023/09/02 06:00:07;;;;;;;6.80;6.20;;;11.00;99.90;;;;;;5038129;28;20549;-60
2023/09/02 06:02:35;;;;;;;7.60;6.80;;;11.10;99.90;;;;;;5042202;28;20499;-60
2023/09/02 06:05:04;;;;;;;7.40;6.70;;;11.20;99.90;;;;;;5033941;28;20533;-59
2023/09/02 06:07:32;;;;;;;8.40;7.60;;;11.20;99.90;;;;;;5036300;28;20471;-60
2023/09/02 06:10:00;;;;;;;7.13;6.47;;;11.30;99.90;;;;;;5043825;28;20545;-63
2023/09/02 06:12:28;;;;;;;8.10;7.40;;;11.40;99.90;;;;;;5042224;28;20473;-60
2023/09/02 06:14:57;;;;;;;8.00;7.30;;;11.40;99.90;;;;;;5032282;28;20494;-60
2023/09/02 06:17:30;;;;;;;8.87;7.97;;;11.50;99.90;;;;;;5036311;28;20499;-60
2023/09/02 06:19:59;;;;;;;7.57;6.87;;;11.60;99.90;;;;;;5026624;28;20474;-60
2023/09/02 06:22:27;;;;;;;9.03;8.13;;;11.70;99.90;;;;;;5035282;28;20466;-61
2023/09/02 06:24:55;;;;;;;9.27;8.37;;;11.80;99.90;;;;;;5036724;28;21166;-61
2023/09/02 06:27:23;;;;;;;9.17;8.27;;;11.90;99.90;;;;;;5040281;28;20478;-61
2023/09/02 06:29:51;;;;;;;8.63;7.70;;;12.00;99.90;;;;;;5037137;28;20983;-61
2023/09/02 06:32:19;;;;;;;9.50;8.50;;;12.10;99.90;;;;;;5025338;28;20479;-61
2023/09/02 06:34:50;;;;;;;9.37;8.47;;;12.20;99.90;;;;;;5038685;28;20567;-61
2023/09/02 06:37:18;;;;;;;9.33;8.47;;;12.30;99.90;;;;;;5035700;28;20482;-60
2023/09/02 06:39:46;;;;;;;8.50;7.70;;;12.50;99.90;;;;;;5039497;28;20471;-60
2023/09/02 06:42:14;;;;;;;8.60;7.80;;;12.60;99.90;;;;;;5034886;28;20561;-60
2023/09/02 06:44:46;;;;;;;8.33;7.50;;;12.80;99.90;;;;;;5035257;28;21070;-60
2023/09/02 06:47:14;;;;;;;9.17;6.77;;;12.90;99.90;;;;;;5033338;28;20558;-61
2023/09/02 06:49:42;;;;;;;7.33;6.63;;;13.00;99.90;;;;;;5031775;28;20470;-61
2023/09/02 06:52:12;;;;;;;7.00;6.30;;;13.10;99.90;;;;;;5033078;28;20470;-60
2023/09/02 06:54:40;;;;;;;7.50;6.40;;;13.20;99.90;;;;;;5030913;28;21024;-61
2023/09/02 06:57:08;;;;;;;8.13;5.93;;;13.40;99.90;;;;;;5039813;28;20581;-60
2023/09/02 06:59:36;;;;;;;6.47;5.87;;;13.50;99.90;;;;;;5039243;28;20471;-60
2023/09/02 07:02:04;;;;;;;6.10;5.50;;;13.60;99.90;;;;;;5045179;28;20483;-61
2023/09/02 07:04:32;;;;;;;6.77;5.10;;;13.70;99.90;;;;;;5037399;28;20489;-60
2023/09/02 07:07:00;;;;;;;5.97;5.10;;;13.80;99.90;;;;;;5026345;28;20550;-60
2023/09/02 07:09:29;;;;;;;5.00;4.60;;;13.90;99.90;;;;;;5020869;28;20513;-61
2023/09/02 07:11:58;;;;;;;4.87;4.33;;;14.00;99.90;;;;;;5033711;28;20475;-59
2023/09/02 07:14:26;;;;;;;4.30;3.90;;;14.10;99.90;;;;;;5034525;28;20874;-61
2023/09/02 07:16:54;;;;;;;4.20;3.80;;;14.10;99.90;;;;;;5029598;28;20494;-61
2023/09/02 07:19:22;;;;;;;4.37;3.97;;;14.20;99.90;;;;;;5030957;28;20549;-61
2023/09/02 07:21:49;;;;;;;3.90;3.50;;;14.30;99.90;;;;;;5026777;28;20476;-60
2023/09/02 07:24:18;;;;;;;4.20;3.90;;;14.40;99.90;;;;;;5030374;28;20560;-62
2023/09/02 07:26:47;;;;;;;3.87;3.50;;;14.50;99.90;;;;;;5032448;28;21023;-62
2023/09/02 07:29:15;;;;;;;3.50;3.20;;;14.70;99.90;;;;;;5026595;28;20476;-61
2023/09/02 07:31:44;;;;;;;6.43;3.53;;;14.80;99.90;;;;;;5027933;28;21125;-60
2023/09/02 07:34:12;;;;;;;3.37;3.07;;;14.90;99.90;;;;;;5032359;28;21016;-61
2023/09/02 07:36:40;;;;;;;4.10;2.90;;;15.00;99.90;;;;;;5021983;28;20505;-61
2023/09/02 07:39:08;;;;;;;4.07;2.90;;;15.10;99.90;;;;;;5040312;28;20470;-61
2023/09/02 07:41:36;;;;;;;3.53;2.97;;;15.20;99.90;;;;;;5025618;28;20473;-61
2023/09/02 07:44:05;;;;;;;2.90;2.60;;;15.30;99.90;;;;;;5031971;28;20581;-61
2023/09/02 07:46:33;;;;;;;3.80;2.70;;;15.50;99.90;;;;;;5019831;28;20560;-60
2023/09/02 07:49:01;;;;;;;3.30;2.40;;;15.50;99.90;;;;;;5035123;28;20553;-61
2023/09/02 07:51:30;;;;;;;3.00;2.80;;;15.60;99.90;;;;;;5034478;28;20470;-61
2023/09/02 07:53:58;;;;;;;3.73;2.67;;;15.60;99.90;;;;;;5032044;28;20496;-61
2023/09/02 07:56:26;;;;;;;3.10;2.40;;;15.70;99.90;;;;;;5019911;28;20633;-61
2023/09/02 07:58:54;;;;;;;3.50;2.40;;;15.70;99.90;;;;;;5035130;28;20583;-61
2023/09/02 08:01:23;;;;;;;2.90;2.70;;;15.80;99.90;;;;;;5014691;28;20470;-61
2023/09/02 08:03:51;;;;;;;4.10;2.40;;;15.90;99.90;;;;;;5018688;28;20474;-60
2023/09/02 08:06:19;;;;;;;2.63;2.43;;;16.00;99.90;;;;;;5006991;28;20486;-60
2023/09/02 08:08:47;;;;;;;2.80;2.43;;;16.10;99.90;;;;;;5024281;28;20524;-59
2023/09/02 08:11:17;;;;;;;3.40;2.57;;;16.20;99.90;;;;;;5013044;28;20478;-60
2023/09/02 08:13:46;;;;;;;2.47;2.30;;;16.30;99.90;;;;;;5016566;28;20508;-61
2023/09/02 08:16:14;;;;;;;4.43;2.87;;;16.40;99.90;;;;;;5018608;28;20522;-61
2023/09/02 08:18:43;;;;;;;2.20;2.10;;;16.50;99.90;;;;;;5019105;28;20499;-61
2023/09/02 08:21:12;;;;;;;4.03;2.40;;;16.50;99.90;;;;;;5023912;28;20499;-60
2023/09/02 08:23:40;;;;;;;2.23;2.13;;;16.60;99.90;;;;;;5030829;28;20554;-61
2023/09/02 08:26:11;;;;;;;5.17;2.83;;;16.70;99.90;;;;;;5024208;28;20599;-61
2023/09/02 08:28:39;;;;;;;3.17;2.60;;;16.80;99.90;;;;;;5027340;28;20545;-63
2023/09/02 08:31:11;;;;;;;2.90;2.57;;;16.90;99.90;;;;;;5038908;28;20474;-60
2023/09/02 08:33:39;;;;;;;2.63;2.43;;;17.00;99.90;;;;;;5043758;28;21077;-61
2023/09/02 08:36:15;;;;;;;2.67;2.40;;;17.10;99.90;;;;;;5038115;28;20647;-60
2023/09/02 08:38:43;;;;;;;2.13;2.00;;;17.10;99.90;;;;;;5027166;28;20856;-63
2023/09/02 08:41:14;;;;;;;2.43;2.23;;;17.20;99.90;;;;;;5040210;28;20505;-62
2023/09/02 08:43:42;;;;;;;2.50;2.20;;;17.30;99.90;;;;;;5039531;28;20486;-60
2023/09/02 08:46:13;;;;;;;2.30;2.20;;;17.50;99.90;;;;;;5040044;28;20556;-60
2023/09/02 08:48:44;;;;;;;2.47;2.27;;;17.60;99.90;;;;;;5041391;28;20471;-61
2023/09/02 08:51:13;;;;;;;2.00;1.90;;;17.70;99.90;;;;;;5036999;28;20546;-61
2023/09/02 08:53:43;;;;;;;3.10;2.37;;;17.70;99.90;;;;;;5036825;28;20573;-63
2023/09/02 08:56:12;;;;;;;2.10;2.00;;;17.70;99.90;;;;;;5035068;28;20816;-61
2023/09/02 08:58:40;;;;;;;2.10;2.00;;;17.70;99.90;;;;;;5041038;28;21462;-61
2023/09/02 09:01:17;;;;;;;4.77;2.80;;;17.70;99.90;;;;;;5036660;28;20565;-59
2023/09/02 09:03:48;;;;;;;2.30;2.10;;;17.80;99.90;;;;;;5039150;28;20915;-61
2023/09/02 09:06:21;;;;;;;2.37;2.17;;;17.70;99.90;;;;;;5033429;28;20494;-61
2023/09/02 09:08:52;;;;;;;2.50;2.30;;;17.70;99.90;;;;;;5033572;28;20550;-61
2023/09/02 09:11:22;;;;;;;2.50;2.30;;;17.80;99.90;;;;;;5039841;28;20466;-61
2023/09/02 09:13:54;;;;;;;2.00;1.90;;;18.00;99.90;;;;;;5037832;28;20601;-61
2023/09/02 09:16:25;;;;;;;2.47;1.87;;;18.10;99.90;;;;;;5038916;28;21318;-61
2023/09/02 09:18:53;;;;;;;2.40;2.20;;;18.30;99.90;;;;;;5043538;28;20579;-61
2023/09/02 09:21:25;;;;;;;2.20;2.10;;;18.40;99.90;;;;;;5034749;28;20474;-61
2023/09/02 09:23:53;;;;;;;1.80;1.70;;;18.50;99.90;;;;;;5037128;28;20479;-61
2023/09/02 09:26:22;;;;;;;2.40;2.20;;;18.60;99.90;;;;;;5040619;28;20877;-59
2023/09/02 09:28:52;;;;;;;2.27;2.10;;;18.70;99.90;;;;;;5028233;28;20548;-61
2023/09/02 09:31:21;;;;;;;1.90;1.80;;;18.70;99.90;;;;;;5032004;28;20542;-59
2023/09/02 09:33:51;;;;;;;1.97;1.87;;;18.70;99.90;;;;;;5036510;28;20919;-60
2023/09/02 09:36:21;;;;;;;3.60;2.30;;;18.80;99.90;;;;;;5030510;28;20503;-59
2023/09/02 09:38:54;;;;;;;2.03;1.83;;;18.80;99.90;;;;;;5028481;28;21209;-59
2023/09/02 09:41:23;;;;;;;2.47;2.10;;;19.00;99.90;;;;;;5036413;28;20561;-60
2023/09/02 09:44:05;;;;;;;1.90;1.80;;;19.10;99.90;;;;;;5031609;28;20474;-60
2023/09/02 09:46:35;;;;;;;1.90;1.80;;;19.20;99.90;;;;;;5030723;28;21304;-62
2023/09/02 09:49:03;;;;;;;1.90;1.80;;;19.30;99.90;;;;;;5031628;28;20502;-62
2023/09/02 09:51:31;;;;;;;1.90;1.80;;;19.30;99.90;;;;;;5035914;28;20478;-61
2023/09/02 09:54:01;;;;;;;1.93;1.80;;;19.20;99.90;;;;;;5036595;28;20919;-62
2023/09/02 09:56:29;;;;;;;1.90;1.80;;;19.20;99.90;;;;;;5035147;28;21038;-62
2023/09/02 09:59:08;;;;;;;1.67;1.57;;;19.10;99.90;;;;;;5034791;28;20497;-62
2023/09/02 10:01:36;;;;;;;2.03;1.93;;;19.10;99.90;;;;;;5030894;28;20466;-62
2023/09/02 10:04:07;;;;;;;2.93;1.77;;;19.00;99.90;;;;;;5030690;28;20473;-62
2023/09/02 10:06:38;;;;;;;1.97;1.87;;;19.00;99.90;;;;;;5024622;28;20526;-62
2023/09/02 10:09:07;;;;;;;2.20;1.87;;;19.00;99.90;;;;;;5029865;28;20532;-61
2023/09/02 10:11:36;;;;;;;2.70;1.93;;;19.00;99.90;;;;;;5028478;28;20483;-62
2023/09/02 10:14:05;;;;;;;2.30;2.13;;;19.10;99.90;;;;;;5032448;28;20561;-61
2023/09/02 10:16:35;;;;;;;2.47;2.13;;;19.20;99.90;;;;;;5026329;28;20581;-61
2023/09/02 10:19:05;;;;;;;1.87;1.77;;;19.40;99.90;;;;;;5017957;28;20504;-62
2023/09/02 10:21:36;;;;;;;2.10;1.70;;;19.50;99.90;;;;;;5025896;28;20477;-61
2023/09/02 10:24:08;;;;;;;3.23;1.83;;;19.50;99.90;;;;;;5032248;28;20535;-62
2023/09/02 10:26:49;;;;;;;2.77;1.67;;;19.50;99.90;;;;;;5027788;28;20553;-62
2023/09/02 10:29:22;;;;;;;2.40;2.00;;;19.40;99.90;;;;;;5019683;28;21661;-62
2023/09/02 10:31:55;;;;;;;1.80;1.70;;;19.30;99.90;;;;;;5022248;28;20585;-62
2023/09/02 10:34:32;;;;;;;1.90;1.70;;;19.30;99.90;;;;;;5015999;28;20491;-60
2023/09/02 10:37:04;;;;;;;2.60;1.73;;;19.20;99.90;;;;;;5021827;28;20749;-60
2023/09/02 10:39:42;;;;;;;2.37;1.87;;;19.20;99.90;;;;;;5025751;28;20497;-62
2023/09/02 10:42:12;;;;;;;2.43;1.83;;;19.30;99.90;;;;;;5024819;28;20934;-62
2023/09/02 10:44:40;;;;;;;2.07;1.93;;;19.50;99.90;;;;;;5020756;28;20491;-62
2023/09/02 10:47:09;;;;;;;1.67;1.57;;;19.80;99.90;;;;;;5025471;28;20566;-61
2023/09/02 10:49:37;;;;;;;1.97;1.87;;;19.90;99.90;;;;;;5024060;28;20477;-62
2023/09/02 10:52:06;;;;;;;2.17;1.70;;;20.10;99.90;;;;;;5028466;28;20609;-61
2023/09/02 10:55:05;;;;;;;4.13;1.60;;;20.20;99.90;;;;;;5025416;28;20639;-62
2023/09/02 10:57:46;;;;;;;1.77;1.67;;;20.30;99.90;;;;;;5024394;28;20481;-62
2023/09/02 11:00:16;;;;;;;1.40;1.30;;;20.50;99.90;;;;;;5033005;28;20548;-61
2023/09/02 11:02:45;;;;;;;5.23;1.93;;;20.60;99.90;;;;;;5034780;28;20531;-62
2023/09/02 11:05:14;;;;;;;1.53;1.43;;;20.60;99.90;;;;;;5015574;28;20983;-62
2023/09/02 11:07:42;;;;;;;1.40;1.30;;;20.50;99.90;;;;;;5031952;28;20774;-63
2023/09/02 11:10:11;;;;;;;1.80;1.70;;;20.50;99.90;;;;;;5032702;28;20470;-61
2023/09/02 11:13:06;;;;;;;1.80;1.47;;;20.50;99.90;;;;;;5029943;28;20980;-62
2023/09/02 11:15:36;;;;;;;2.13;1.80;;;20.40;99.90;;;;;;5034339;28;20616;-62
2023/09/02 11:18:31;;;;;;;2.10;1.90;;;20.30;99.90;;;;;;5028779;28;20485;-64
2023/09/02 11:21:00;;;;;;;1.83;1.70;;;20.20;99.90;;;;;;5022508;28;20618;-66
2023/09/02 11:23:28;;;;;;;1.90;1.80;;;20.20;99.90;;;;;;5019529;28;20632;-67
2023/09/02 11:26:04;;;;;;;1.53;1.43;;;20.10;99.90;;;;;;5023571;28;20491;-66
2023/09/02 11:28:35;;;;;;;1.73;1.63;;;20.10;99.90;;;;;;5022779;28;20488;-66
2023/09/02 11:31:06;;;;;;;1.80;1.70;;;20.00;99.90;;;;;;5023951;28;20583;-66
2023/09/02 11:33:36;;;;;;;1.60;1.50;;;20.10;99.90;;;;;;5023448;28;20565;-66
2023/09/02 11:36:05;;;;;;;1.60;1.50;;;20.30;99.90;;;;;;5033563;28;21025;-65
2023/09/02 11:38:34;;;;;;;1.60;1.50;;;20.50;99.90;;;;;;5027972;28;20966;-63
2023/09/02 11:41:03;;;;;;;2.73;1.60;;;20.80;99.90;;;;;;5020515;28;20919;-62
2023/09/02 11:43:32;;;;;;;1.63;1.53;;;21.00;99.90;;;;;;5024610;28;20502;-63
2023/09/02 11:46:04;;;;;;;1.70;1.60;;;21.20;99.90;;;;;;5022070;28;20495;-63
2023/09/02 11:48:32;;;;;;;1.83;1.73;;;21.40;99.90;;;;;;5032585;28;21034;-62
2023/09/02 11:51:00;;;;;;;2.73;1.53;;;21.60;99.90;;;;;;5024341;28;20560;-63
2023/09/02 11:53:29;;;;;;;1.77;1.60;;;21.70;99.90;;;;;;5033800;28;20521;-68
2023/09/02 11:55:58;;;;;;;1.70;1.60;;;21.70;99.90;;;;;;5030679;28;20600;-67
2023/09/02 11:58:26;;;;;;;1.83;1.70;;;21.80;99.90;;;;;;5031791;28;20985;-68
2023/09/02 12:00:54;;;;;;;2.03;1.93;;;21.70;99.90;;;;;;5032579;28;20620;-67
2023/09/02 12:03:27;;;;;;;1.67;1.57;;;21.60;99.90;;;;;;5017578;28;20949;-65
2023/09/02 12:06:00;;;;;;;2.00;1.90;;;21.50;99.90;;;;;;5016823;28;20493;-62
2023/09/02 12:08:30;;;;;;;1.80;1.70;;;21.50;99.90;;;;;;5010354;28;21050;-61
2023/09/02 12:11:01;;;;;;;1.80;1.57;;;21.70;99.90;;;;;;5006828;28;20490;-62
2023/09/02 12:13:30;;;;;;;1.60;1.50;;;21.80;99.90;;;;;;5021806;28;21068;-62
2023/09/02 12:15:58;;;;;;;2.20;2.00;;;21.80;99.90;;;;;;5011730;28;20490;-62
2023/09/02 12:18:29;;;;;;;1.67;1.57;;;21.80;99.90;;;;;;5033487;28;20466;-61
2023/09/02 12:20:58;;;;;;;1.70;1.50;;;21.80;99.90;;;;;;5030064;28;20585;-62
2023/09/02 12:23:27;;;;;;;3.13;1.70;;;21.90;99.90;;;;;;5026957;28;20558;-62
2023/09/02 12:26:05;;;;;;;2.77;1.60;;;22.10;99.90;;;;;;5028628;28;20494;-61
2023/09/02 12:28:34;;;;;;;2.00;1.40;;;22.40;99.90;;;;;;5025569;28;21067;-62
2023/09/02 12:31:03;;;;;;;2.03;1.57;;;22.50;99.90;;;;;;5024636;28;20478;-63
2023/09/02 12:33:32;;;;;;;2.67;1.70;;;22.80;99.90;;;;;;5014356;28;20979;-62
2023/09/02 12:36:06;;;;;;;1.60;1.50;;;22.70;99.90;;;;;;5009406;28;20987;-62
2023/09/02 12:38:48;;;;;;;2.60;1.73;;;22.70;99.90;;;;;;5019055;28;21065;-61
2023/09/02 12:41:16;;;;;;;1.63;1.53;;;22.70;99.90;;;;;;5020257;28;20521;-62
2023/09/02 12:43:44;;;;;;;1.70;1.30;;;22.70;99.90;;;;;;5013088;28;20549;-61
2023/09/02 12:46:18;;;;;;;1.80;1.70;;;22.70;99.90;;;;;;5014383;28;20505;-61
2023/09/02 12:48:48;;;;;;;1.80;1.40;;;22.90;99.90;;;;;;5034022;28;20492;-61
2023/09/02 12:51:27;;;;;;;1.33;1.27;;;23.10;99.90;;;;;;5037358;28;20473;-62
2023/09/02 12:53:56;;;;;;;1.40;1.30;;;23.30;99.90;;;;;;5034592;28;20925;-62
2023/09/02 12:56:24;;;;;;;1.60;1.50;;;23.20;99.90;;;;;;5030612;28;21085;-61
2023/09/02 12:58:52;;;;;;;1.60;1.50;;;23.20;99.90;;;;;;5036466;28;21002;-61
2023/09/02 13:01:20;;;;;;;1.40;1.30;;;23.30;99.90;;;;;;5032384;28;20500;-62